Time;durP1;ratioP1;P1;durP2;ratioP2;P2;SDS_P1;SDS_P2;PMS_P1;PMS_P2;Temp;Humidity;BMP_temperature;BMP_pressure;BME280_temperature;BME280_humidity;BME280_pressure;Samples;Min_cycle;Max_cycle;Signal;HPM_P1;HPM_P2
2020/12/27 00:00:13;;;;;;;11.60;1.70;;;;;;;10.89;72.81;97996.44;5071497;28;20041;-85
2020/12/27 00:02:38;;;;;;;12.85;1.80;;;;;;;10.86;72.98;98002.03;5072969;28;20032;-85
2020/12/27 00:05:06;;;;;;;7.43;1.60;;;;;;;10.77;73.62;97974.16;5073145;28;20082;-85
2020/12/27 00:07:32;;;;;;;9.55;1.83;;;;;;;10.99;72.43;97976.09;5072793;28;20025;-85
2020/12/27 00:09:57;;;;;;;9.88;1.75;;;;;;;10.78;73.55;97960.03;5071567;28;20025;-85
2020/12/27 00:12:22;;;;;;;10.45;1.80;;;;;;;10.67;73.94;97956.75;5072933;28;20118;-85
2020/12/27 00:14:48;;;;;;;19.55;2.58;;;;;;;10.83;74.40;97947.25;5073064;28;20025;-85
2020/12/27 00:17:13;;;;;;;11.95;2.05;;;;;;;11.08;73.29;97932.28;5073003;28;20124;-85
2020/12/27 00:19:40;;;;;;;10.38;2.17;;;;;;;10.84;73.62;97922.63;5072913;28;20525;-85
2020/12/27 00:22:06;;;;;;;16.40;3.00;;;;;;;10.74;74.99;97911.47;5072785;28;20529;-85
2020/12/27 00:24:32;;;;;;;18.02;2.25;;;;;;;10.63;75.39;97881.16;5070867;28;20032;-85
2020/12/27 00:26:58;;;;;;;11.00;2.00;;;;;;;10.61;75.52;97876.09;5072788;28;20027;-85
2020/12/27 00:29:23;;;;;;;11.63;2.45;;;;;;;10.81;74.94;97878.34;5072795;28;20056;-85
2020/12/27 00:31:53;;;;;;;14.82;2.03;;;;;;;10.95;74.19;97854.00;5067333;28;20108;-85
2020/12/27 00:34:19;;;;;;;19.55;2.42;;;;;;;10.83;74.16;97861.44;5052672;28;20379;-85
2020/12/27 00:36:45;;;;;;;15.15;2.45;;;;;;;10.71;74.25;97837.34;5052602;28;20033;-85
2020/12/27 00:39:11;;;;;;;21.25;2.72;;;;;;;10.68;75.65;97837.69;5052593;28;20029;-85
2020/12/27 00:41:36;;;;;;;13.18;2.00;;;;;;;10.54;75.82;97809.50;5052516;28;20044;-85
2020/12/27 00:44:02;;;;;;;16.73;2.53;;;;;;;10.70;75.30;97814.72;5059561;28;20036;-85
2020/12/27 00:46:28;;;;;;;11.90;2.20;;;;;;;10.34;75.75;97779.38;5072327;28;20025;-85
2020/12/27 00:48:53;;;;;;;12.32;2.78;;;;;;;10.19;77.10;97764.31;5072490;28;20074;-85
2020/12/27 00:51:20;;;;;;;12.75;2.53;;;;;;;10.61;76.12;97771.13;5072326;28;20025;-85
2020/12/27 00:53:46;;;;;;;14.32;3.33;;;;;;;10.18;77.50;97754.81;5069790;28;20029;-85
2020/12/27 00:56:11;;;;;;;13.85;3.15;;;;;;;10.20;77.82;97760.69;5072210;28;20053;-85
2020/12/27 00:58:36;;;;;;;15.73;2.40;;;;;;;10.48;76.71;97741.97;5054174;28;20314;-85
2020/12/27 01:01:02;;;;;;;11.25;2.22;;;;;;;10.50;75.88;97742.63;5072110;28;20016;-85
2020/12/27 01:03:28;;;;;;;14.15;2.42;;;;;;;10.33;76.31;97720.88;5071950;28;20116;-85
2020/12/27 01:05:53;;;;;;;15.02;1.77;;;;;;;10.08;77.25;97693.88;5072289;28;20099;-85
2020/12/27 01:08:18;;;;;;;12.88;2.28;;;;;;;10.40;76.61;97690.34;5070285;28;20309;-85
2020/12/27 01:10:44;;;;;;;14.98;2.42;;;;;;;10.32;76.18;97670.22;5071840;28;20375;-85
2020/12/27 01:13:10;;;;;;;15.50;2.47;;;;;;;10.31;76.83;97676.47;5071956;28;20028;-84
2020/12/27 01:15:38;;;;;;;14.05;2.03;;;;;;;10.07;77.37;97626.69;5072014;28;20027;-84
2020/12/27 01:18:04;;;;;;;9.98;1.55;;;;;;;10.18;76.84;97634.19;5070265;28;20020;-84
2020/12/27 01:20:29;;;;;;;12.82;2.00;;;;;;;10.17;77.25;97608.97;5071874;28;20028;-84
2020/12/27 01:22:55;;;;;;;14.70;2.00;;;;;;;9.99;76.82;97610.97;5071745;28;20028;-84
2020/12/27 01:25:20;;;;;;;11.00;1.23;;;;;;;10.50;76.45;97598.31;5071819;28;20024;-85
2020/12/27 01:27:45;;;;;;;8.35;1.58;;;;;;;10.24;76.60;97599.41;5065860;28;20111;-84
2020/12/27 01:30:11;;;;;;;9.75;2.13;;;;;;;10.14;77.66;97569.97;5051783;28;20048;-84
2020/12/27 01:32:36;;;;;;;6.80;1.17;;;;;;;9.96;77.55;97574.63;5052228;28;20025;-84
2020/12/27 01:35:01;;;;;;;6.43;1.30;;;;;;;9.90;77.92;97535.00;5050569;28;20083;-84
2020/12/27 01:37:27;;;;;;;4.60;1.40;;;;;;;10.19;76.48;97556.34;5067495;28;20028;-84
2020/12/27 01:39:52;;;;;;;8.02;1.63;;;;;;;10.00;77.93;97528.75;5070506;28;20079;-84
2020/12/27 01:42:18;;;;;;;11.63;1.25;;;;;;;10.11;77.78;97518.69;5071559;28;20040;-84
2020/12/27 01:44:43;;;;;;;5.43;1.10;;;;;;;9.86;77.84;97506.69;5071437;28;20541;-84
2020/12/27 01:47:22;;;;;;;7.88;1.40;;;;;;;10.22;77.84;97507.00;5071660;28;20027;-84
2020/12/27 01:49:49;;;;;;;4.05;0.85;;;;;;;9.98;77.64;97458.13;5071626;28;20096;-84
2020/12/27 01:52:15;;;;;;;11.05;1.23;;;;;;;9.87;78.53;97451.50;5070984;28;20028;-84
2020/12/27 01:54:40;;;;;;;8.20;1.05;;;;;;;10.17;77.46;97456.88;5070276;28;20054;-84
2020/12/27 01:57:15;;;;;;;9.55;1.38;;;;;;;10.31;77.22;97458.78;5069764;28;20119;-84
2020/12/27 01:59:41;;;;;;;9.68;1.35;;;;;;;9.98;77.45;97446.84;5071293;28;20433;-84
2020/12/27 02:02:07;;;;;;;4.95;1.25;;;;;;;10.44;76.46;97421.47;5071219;28;20020;-84
2020/12/27 02:04:34;;;;;;;7.00;1.17;;;;;;;10.43;76.84;97435.59;5071427;28;20028;-84
2020/12/27 02:06:59;;;;;;;6.68;1.17;;;;;;;10.29;77.08;97417.97;5075350;28;20098;-84
2020/12/27 02:09:25;;;;;;;7.40;1.63;;;;;;;10.37;76.72;97391.69;5075595;28;20024;-85
2020/12/27 02:12:07;;;;;;;5.78;1.15;;;;;;;10.35;77.14;97398.09;5064141;28;20052;-84
2020/12/27 02:14:35;;;;;;;6.38;1.23;;;;;;;10.63;75.98;97370.31;5055463;28;20060;-84
2020/12/27 02:17:02;;;;;;;3.00;0.80;;;;;;;10.41;76.30;97355.44;5055249;28;20025;-84
2020/12/27 02:19:28;;;;;;;6.07;0.80;;;;;;;10.18;77.16;97352.81;5059854;28;20021;-84
2020/12/27 02:21:53;;;;;;;4.82;0.90;;;;;;;10.08;78.17;97316.38;5075163;28;20107;-84
2020/12/27 02:24:19;;;;;;;2.40;0.80;;;;;;;10.35;76.87;97308.94;5074983;28;20032;-84
2020/12/27 02:27:13;;;;;;;4.15;0.80;;;;;;;10.04;78.67;97318.50;5075130;28;20024;-84
2020/12/27 02:29:39;;;;;;;4.57;1.48;;;;;;;9.80;79.99;97316.91;5057480;28;20382;-84
2020/12/27 02:32:04;;;;;;;5.18;1.20;;;;;;;9.71;80.78;97304.84;5075538;28;20012;-84
2020/12/27 02:34:29;;;;;;;6.95;1.27;;;;;;;9.95;79.09;97269.75;5074762;28;20021;-84
2020/12/27 02:36:55;;;;;;;9.43;2.67;;;;;;;10.06;79.28;97284.28;5074907;28;20024;-84
2020/12/27 02:39:22;;;;;;;5.68;0.88;;;;;;;10.04;78.73;97275.78;5074906;28;20136;-84
2020/12/27 02:41:48;;;;;;;5.93;0.95;;;;;;;9.79;79.29;97244.50;5074777;28;20028;-84
2020/12/27 02:44:14;;;;;;;7.10;1.10;;;;;;;9.99;78.80;97223.88;5072973;28;20447;-84
2020/12/27 02:46:39;;;;;;;6.93;1.20;;;;;;;9.97;78.98;97223.22;5054848;28;20111;-84
2020/12/27 02:49:04;;;;;;;6.00;1.08;;;;;;;9.68;80.45;97224.81;5054897;28;20017;-84
2020/12/27 02:51:30;;;;;;;6.68;1.17;;;;;;;9.88;79.43;97203.34;5054831;28;20029;-84
2020/12/27 02:53:57;;;;;;;3.88;0.65;;;;;;;9.79;79.36;97199.97;5054379;28;20111;-84
2020/12/27 02:56:24;;;;;;;7.18;0.90;;;;;;;9.87;79.34;97184.19;5054740;28;20027;-84
2020/12/27 02:58:51;;;;;;;4.07;0.70;;;;;;;9.70;79.58;97164.38;5054544;28;20029;-84
2020/12/27 03:01:17;;;;;;;6.82;1.48;;;;;;;9.83;79.70;97155.88;5073599;28;20032;-84
2020/12/27 03:03:43;;;;;;;6.55;1.30;;;;;;;9.43;80.87;97123.84;5074670;28;20028;-84
2020/12/27 03:06:09;;;;;;;10.10;2.42;;;;;;;9.69;80.20;97133.91;5074477;28;20382;-84
2020/12/27 03:08:35;;;;;;;8.60;1.40;;;;;;;9.70;80.09;97120.66;5074367;28;20028;-84
2020/12/27 03:11:00;;;;;;;9.43;1.50;;;;;;;9.54;80.03;97131.28;5074878;28;20481;-84
2020/12/27 03:13:27;;;;;;;9.57;1.80;;;;;;;9.53;80.23;97130.47;5074207;28;20033;-84
2020/12/27 03:15:54;;;;;;;15.10;2.00;;;;;;;9.88;79.06;97086.22;5055363;28;20031;-84
2020/12/27 03:18:22;;;;;;;9.27;1.70;;;;;;;9.41;80.50;97070.84;5054354;28;20025;-84
2020/12/27 03:20:49;;;;;;;12.43;1.60;;;;;;;9.63;79.48;97063.91;5054191;28;20099;-85
2020/12/27 03:23:15;;;;;;;8.93;1.73;;;;;;;9.93;78.89;97056.84;5054001;28;20375;-85
2020/12/27 03:25:41;;;;;;;8.63;1.50;;;;;;;9.80;79.34;97049.66;5066830;28;20032;-85
2020/12/27 03:28:06;;;;;;;7.53;1.38;;;;;;;9.84;79.14;97027.31;5073901;28;20021;-85
2020/12/27 03:30:32;;;;;;;6.95;1.50;;;;;;;9.97;78.77;97041.59;5074083;28;20021;-85
2020/12/27 03:32:57;;;;;;;9.50;1.80;;;;;;;9.67;79.34;97041.59;5074599;28;20023;-85
2020/12/27 03:35:23;;;;;;;12.43;2.28;;;;;;;9.48;80.88;97064.72;5073840;28;20313;-84
2020/12/27 03:37:48;;;;;;;12.07;1.88;;;;;;;9.40;80.37;97064.81;5074005;28;20033;-84
2020/12/27 03:40:14;;;;;;;6.40;1.33;;;;;;;8.96;77.41;97054.25;5063202;28;20497;-84
2020/12/27 03:42:39;;;;;;;7.50;2.00;;;;;;;8.89;76.39;97069.84;5053646;28;20029;-84
2020/12/27 03:45:05;;;;;;;8.18;1.25;;;;;;;8.89;76.55;97060.19;5053853;28;20498;-85
2020/12/27 03:47:30;;;;;;;9.00;1.60;;;;;;;8.88;77.29;97053.31;5053858;28;20063;-85
2020/12/27 03:49:55;;;;;;;13.63;1.73;;;;;;;8.43;78.77;97038.44;5053751;28;20208;-85
2020/12/27 03:52:21;;;;;;;6.93;1.40;;;;;;;8.87;77.05;97030.75;5053431;28;20526;-85
2020/12/27 03:54:46;;;;;;;10.07;1.50;;;;;;;8.70;77.26;97009.13;5061641;28;20024;-84
2020/12/27 03:57:12;;;;;;;10.02;1.63;;;;;;;8.44;78.42;97022.56;5073353;28;20024;-84
2020/12/27 03:59:37;;;;;;;6.97;1.55;;;;;;;8.83;77.67;96981.59;5073262;28;20029;-85
2020/12/27 04:02:03;;;;;;;11.18;1.27;;;;;;;8.88;78.03;96960.94;5073335;28;20024;-85
2020/12/27 04:04:28;;;;;;;6.80;1.60;;;;;;;9.12;76.22;96942.38;5073026;28;20520;-85
2020/12/27 04:06:54;;;;;;;6.50;1.13;;;;;;;8.36;77.65;96923.25;5073228;28;20375;-85
2020/12/27 04:09:19;;;;;;;5.90;0.85;;;;;;;8.96;77.00;96937.28;5066047;28;20035;-85
2020/12/27 04:11:44;;;;;;;8.27;0.95;;;;;;;8.85;76.31;96927.28;5053109;28;20024;-85
2020/12/27 04:14:10;;;;;;;12.13;1.50;;;;;;;8.92;75.75;96915.91;5053041;28;20108;-85
2020/12/27 04:16:35;;;;;;;9.57;1.40;;;;;;;8.99;76.38;96908.16;5053238;28;20029;-85
2020/12/27 04:19:00;;;;;;;8.68;1.27;;;;;;;8.53;76.60;96909.09;5053929;28;20025;-85
2020/12/27 04:21:26;;;;;;;7.38;1.30;;;;;;;8.91;76.59;96916.91;5051519;28;20429;-85
2020/12/27 04:23:51;;;;;;;5.35;1.23;;;;;;;8.91;77.64;96909.06;5052735;28;20033;-85
2020/12/27 04:26:17;;;;;;;6.68;1.05;;;;;;;8.58;77.46;96905.94;5052952;28;20032;-85
2020/12/27 04:28:43;;;;;;;9.18;1.40;;;;;;;8.74;77.77;96881.44;5052282;28;20502;-85
2020/12/27 04:31:16;;;;;;;8.38;1.30;;;;;;;8.57;78.41;96878.19;5052851;28;20066;-85
2020/12/27 04:33:41;;;;;;;9.93;1.40;;;;;;;8.79;77.60;96881.72;5053268;28;20025;-85
2020/12/27 04:36:07;;;;;;;11.55;1.65;;;;;;;8.65;78.47;96885.94;5068717;28;20028;-85
2020/12/27 04:38:33;;;;;;;9.90;1.83;;;;;;;8.51;79.02;96891.94;5072526;28;20494;-85
2020/12/27 04:41:00;;;;;;;11.05;1.48;;;;;;;8.70;78.35;96891.44;5072579;28;20511;-85
2020/12/27 04:43:26;;;;;;;15.75;2.03;;;;;;;8.65;78.55;96869.44;5064420;28;20112;-85
2020/12/27 04:45:56;;;;;;;10.52;1.88;;;;;;;8.54;78.05;96858.41;5052514;28;20456;-85
2020/12/27 04:48:22;;;;;;;18.85;2.15;;;;;;;8.92;77.21;96865.38;5052290;28;20021;-85
2020/12/27 04:50:49;;;;;;;13.82;1.98;;;;;;;8.94;76.89;96850.31;5052367;28;20033;-85
2020/12/27 04:53:14;;;;;;;14.77;2.33;;;;;;;8.94;77.39;96847.72;5052109;28;20032;-86
2020/12/27 04:55:40;;;;;;;12.25;1.70;;;;;;;8.81;75.87;96844.94;5052308;28;20025;-85
2020/12/27 04:58:11;;;;;;;8.75;1.92;;;;;;;8.99;75.77;96823.63;5058076;28;20219;-85
2020/12/27 05:00:37;;;;;;;14.05;1.80;;;;;;;8.83;74.91;96816.78;5072367;28;20032;-85
2020/12/27 05:03:02;;;;;;;8.30;1.92;;;;;;;8.95;74.88;96814.53;5072136;28;20024;-85
2020/12/27 05:05:27;;;;;;;14.00;1.60;;;;;;;8.57;75.31;96815.44;5072186;28;20440;-85
2020/12/27 05:07:53;;;;;;;8.82;1.45;;;;;;;8.93;75.71;96822.56;5070430;28;20051;-85
2020/12/27 05:10:18;;;;;;;12.63;1.50;;;;;;;8.37;77.19;96814.28;5072293;28;20021;-85
2020/12/27 05:12:43;;;;;;;8.82;1.23;;;;;;;8.64;76.17;96811.09;5071969;28;20047;-85
2020/12/27 05:15:09;;;;;;;25.98;1.63;;;;;;;8.83;75.25;96804.50;5072225;28;20035;-86
2020/12/27 05:17:36;;;;;;;11.52;2.00;;;;;;;8.83;75.45;96798.47;5072096;28;20477;-86
2020/12/27 05:20:14;;;;;;;11.77;2.13;;;;;;;8.98;74.57;96799.25;5071979;28;20398;-85
2020/12/27 05:22:40;;;;;;;9.98;1.48;;;;;;;9.01;74.99;96803.34;5072014;28;20025;-86
2020/12/27 05:25:05;;;;;;;11.13;1.95;;;;;;;8.77;76.63;96799.19;5053523;28;20038;-86
2020/12/27 05:27:42;;;;;;;12.52;2.13;;;;;;;9.02;76.20;96797.88;5051969;28;20029;-86
2020/12/27 05:30:08;;;;;;;20.77;3.00;;;;;;;8.54;78.22;96782.59;5052011;28;20029;-85
2020/12/27 05:32:33;;;;;;;23.27;3.58;;;;;;;8.73;77.82;96762.13;5052303;28;20112;-85
2020/12/27 05:34:59;;;;;;;21.67;3.25;;;;;;;8.88;77.77;96759.50;5051630;28;20115;-85
2020/12/27 05:37:26;;;;;;;24.27;3.50;;;;;;;8.87;77.73;96734.34;5051780;28;20108;-85
2020/12/27 05:39:52;;;;;;;27.30;2.70;;;;;;;8.91;76.91;96738.22;5069679;28;20387;-86
2020/12/27 05:42:23;;;;;;;15.88;2.45;;;;;;;9.03;76.64;96726.25;5053529;28;20112;-86
2020/12/27 05:44:49;;;;;;;14.52;2.63;;;;;;;9.11;76.53;96717.50;5071630;28;20021;-85
2020/12/27 05:47:14;;;;;;;20.88;2.67;;;;;;;9.21;76.10;96714.56;5061754;28;20075;-86
2020/12/27 05:49:41;;;;;;;14.07;2.10;;;;;;;9.20;77.15;96736.50;5052029;28;20025;-86
2020/12/27 05:52:13;;;;;;;15.63;2.28;;;;;;;8.93;76.98;96736.22;5051624;28;20502;-86
2020/12/27 05:54:47;;;;;;;27.08;3.20;;;;;;;8.97;77.38;96734.84;5051683;28;20079;-86
2020/12/27 05:57:14;;;;;;;17.63;2.22;;;;;;;9.00;77.15;96726.63;5051646;28;20025;-86
2020/12/27 05:59:44;;;;;;;16.77;3.45;;;;;;;9.11;76.79;96718.28;5051652;28;20025;-86
2020/12/27 06:02:36;;;;;;;18.33;2.10;;;;;;;9.06;77.02;96715.44;5052583;28;20060;-86
2020/12/27 06:05:11;;;;;;;15.05;2.22;;;;;;;9.16;76.67;96717.72;5051292;28;20032;-86
2020/12/27 06:07:59;;;;;;;20.42;2.72;;;;;;;8.92;77.07;96718.88;5051524;28;20029;-86
2020/12/27 06:10:43;;;;;;;13.85;2.47;;;;;;;9.12;76.30;96725.16;5051270;28;20029;-86
2020/12/27 06:13:27;;;;;;;18.52;2.63;;;;;;;9.09;76.08;96695.94;5051283;28;20056;-86
2020/12/27 06:15:57;;;;;;;23.00;4.65;;;;;;;8.89;76.01;96704.38;5051469;28;20494;-86
2020/12/27 06:18:28;;;;;;;27.27;2.97;;;;;;;8.94;76.77;96698.56;5065115;28;20039;-86
2020/12/27 06:21:16;;;;;;;22.73;3.20;;;;;;;8.82;76.42;96716.56;5071386;28;20028;-86
2020/12/27 06:23:45;;;;;;;24.48;2.97;;;;;;;8.79;76.06;96698.63;5071281;28;20028;-86
2020/12/27 06:26:11;;;;;;;21.40;3.35;;;;;;;8.86;76.29;96707.34;5071505;28;20020;-86
2020/12/27 06:28:36;;;;;;;17.08;2.85;;;;;;;8.70;76.45;96679.59;5071105;28;20112;-86
2020/12/27 06:31:08;;;;;;;16.73;2.70;;;;;;;8.47;77.04;96697.22;5071255;28;20027;-85
2020/12/27 06:33:36;;;;;;;18.77;2.72;;;;;;;8.35;76.55;96699.44;5054641;28;20115;-85
2020/12/27 06:36:03;;;;;;;14.35;2.50;;;;;;;8.72;76.31;96692.50;5051222;28;20475;-86
2020/12/27 06:38:31;;;;;;;23.67;2.40;;;;;;;8.58;76.08;96693.34;5050171;28;20442;-86
2020/12/27 06:41:04;;;;;;;12.38;2.35;;;;;;;8.21;77.72;96690.63;5059302;28;20104;-86
2020/12/27 06:43:40;;;;;;;16.25;2.25;;;;;;;8.22;78.32;96679.19;5071044;28;20395;-86
2020/12/27 06:46:28;;;;;;;13.23;2.60;;;;;;;8.07;76.91;96680.97;5071093;28;20103;-85
2020/12/27 06:49:14;;;;;;;12.65;2.05;;;;;;;8.05;77.02;96704.66;5071075;28;20021;-85
2020/12/27 06:51:44;;;;;;;15.02;1.98;;;;;;;7.72;76.24;96698.94;5072570;28;20024;-85
2020/12/27 06:54:10;;;;;;;8.15;1.77;;;;;;;7.89;76.01;96687.38;5074249;28;20170;-85
2020/12/27 06:56:38;;;;;;;12.40;1.58;;;;;;;8.05;74.84;96675.13;5072768;28;20024;-86
2020/12/27 06:59:04;;;;;;;12.05;1.58;;;;;;;8.06;75.03;96663.69;5072879;28;20029;-86
2020/12/27 07:01:31;;;;;;;10.30;1.38;;;;;;;7.49;76.68;96655.44;5074921;28;20032;-86
2020/12/27 07:04:18;;;;;;;12.50;1.50;;;;;;;7.88;76.04;96632.72;5074416;28;20112;-86
2020/12/27 07:06:46;;;;;;;15.18;2.03;;;;;;;8.07;76.28;96650.44;5074629;28;20028;-86
2020/12/27 07:09:21;;;;;;;12.23;2.08;;;;;;;7.85;77.11;96686.09;5074407;28;20474;-85
2020/12/27 07:11:48;;;;;;;3.13;0.60;;;;;;;7.43;74.87;96682.25;5074680;28;20032;-85
2020/12/27 07:14:14;;;;;;;1.70;0.43;;;;;;;7.28;74.85;96691.81;5068459;28;20477;-85
2020/12/27 07:16:48;;;;;;;0.82;0.40;;;;;;;7.36;76.58;96696.97;5063799;28;20090;-85
2020/12/27 07:19:17;;;;;;;2.83;0.47;;;;;;;6.96;76.04;96701.47;5074190;28;20016;-86
2020/12/27 07:21:47;;;;;;;1.98;0.30;;;;;;;7.18;74.99;96718.13;5074142;28;20024;-85
2020/12/27 07:24:12;;;;;;;3.08;0.38;;;;;;;7.44;74.17;96720.38;5074043;28;20027;-85
2020/12/27 07:26:39;;;;;;;1.20;0.30;;;;;;;7.37;74.11;96719.47;5074027;28;20029;-85
2020/12/27 07:29:08;;;;;;;2.55;0.52;;;;;;;7.37;74.21;96716.88;5073974;28;20104;-86
2020/12/27 07:31:35;;;;;;;2.63;0.40;;;;;;;7.09;76.14;96717.38;5064130;28;20052;-85
2020/12/27 07:34:01;;;;;;;2.80;0.30;;;;;;;6.93;76.75;96717.47;5054334;28;20076;-85
2020/12/27 07:36:27;;;;;;;6.47;0.45;;;;;;;7.12;76.52;96709.19;5053790;28;20033;-85
2020/12/27 07:39:01;;;;;;;4.28;0.40;;;;;;;7.25;75.42;96703.41;5053838;28;20478;-85
2020/12/27 07:41:32;;;;;;;2.33;0.30;;;;;;;7.25;73.23;96695.59;5053879;28;20037;-86
2020/12/27 07:43:58;;;;;;;3.22;0.30;;;;;;;7.37;74.68;96703.00;5053657;28;20536;-85
2020/12/27 07:46:25;;;;;;;2.38;0.20;;;;;;;7.34;75.12;96704.97;5054767;28;20103;-86
2020/12/27 07:48:51;;;;;;;3.90;0.40;;;;;;;7.27;76.42;96692.81;5054663;28;20086;-85
2020/12/27 07:51:18;;;;;;;4.40;0.57;;;;;;;7.11;75.58;96689.31;5053837;28;20510;-85
2020/12/27 07:53:48;;;;;;;2.78;0.68;;;;;;;7.34;75.34;96678.06;5053454;28;20399;-85
2020/12/27 07:56:26;;;;;;;3.17;0.52;;;;;;;7.25;74.16;96685.16;5053695;28;20075;-85
2020/12/27 07:58:54;;;;;;;3.95;0.50;;;;;;;7.21;74.48;96689.09;5053497;28;20471;-85
2020/12/27 08:01:24;;;;;;;6.43;0.95;;;;;;;7.21;75.31;96709.97;5057067;28;20028;-85
2020/12/27 08:04:00;;;;;;;3.92;0.50;;;;;;;7.28;75.32;96710.88;5055463;28;20064;-85
2020/12/27 08:06:30;;;;;;;4.15;0.85;;;;;;;7.06;74.84;96711.69;5055329;28;20033;-85
2020/12/27 08:09:05;;;;;;;4.97;0.52;;;;;;;7.03;74.97;96718.06;5054188;28;20357;-85
2020/12/27 08:11:32;;;;;;;4.45;0.75;;;;;;;7.21;75.83;96703.91;5053241;28;20024;-89
2020/12/27 08:14:00;;;;;;;2.35;0.43;;;;;;;7.30;75.14;96692.44;5052969;28;20479;-88
2020/12/27 08:16:27;;;;;;;5.78;0.65;;;;;;;7.25;74.04;96690.38;5053011;28;20442;-89
2020/12/27 08:19:01;;;;;;;3.20;0.60;;;;;;;7.20;75.00;96697.91;5053007;28;20021;-88
2020/12/27 08:21:27;;;;;;;3.65;0.40;;;;;;;7.33;75.55;96699.94;5052636;28;20096;-88
2020/12/27 08:24:00;;;;;;;4.53;1.05;;;;;;;7.00;75.50;96692.31;5058885;28;20482;-89
2020/12/27 08:26:27;;;;;;;3.95;0.50;;;;;;;7.05;75.76;96716.09;5072892;28;20028;-89
2020/12/27 08:28:52;;;;;;;4.30;1.00;;;;;;;6.98;75.50;96706.53;5072852;28;20021;-88
2020/12/27 08:31:27;;;;;;;6.95;0.75;;;;;;;6.91;75.20;96699.41;5065375;28;20035;-88
2020/12/27 08:34:15;;;;;;;2.38;0.60;;;;;;;6.86;75.23;96695.69;5073217;28;20032;-88
2020/12/27 08:36:46;;;;;;;3.90;0.77;;;;;;;6.88;74.16;96691.91;5071891;28;20033;-88
2020/12/27 08:39:21;;;;;;;1.90;0.60;;;;;;;6.75;76.51;96702.06;5071317;28;20033;-88
2020/12/27 08:42:11;;;;;;;3.67;0.73;;;;;;;6.81;75.19;96708.41;5076263;28;20024;-87
2020/12/27 08:44:49;;;;;;;2.60;0.65;;;;;;;6.84;75.69;96702.88;5071993;28;20055;-87
2020/12/27 08:47:33;;;;;;;2.97;0.82;;;;;;;6.83;74.98;96696.00;5072411;28;20029;-87
2020/12/27 08:50:05;;;;;;;3.08;0.70;;;;;;;6.82;76.67;96697.00;5068253;28;20055;-87
2020/12/27 08:52:32;;;;;;;3.97;0.82;;;;;;;6.85;74.51;96692.28;5052361;28;20023;-88
2020/12/27 08:55:11;;;;;;;3.80;0.98;;;;;;;6.53;74.99;96693.22;5054715;28;20104;-87
2020/12/27 08:57:37;;;;;;;3.85;2.00;;;;;;;6.71;74.94;96685.16;5066226;28;20138;-87
2020/12/27 09:00:08;;;;;;;8.13;0.95;;;;;;;6.70;75.81;96684.34;5067375;28;20490;-87
2020/12/27 09:02:35;;;;;;;4.43;0.80;;;;;;;6.66;75.64;96687.47;5072150;28;20474;-87
2020/12/27 09:05:14;;;;;;;11.50;1.63;;;;;;;6.88;74.10;96691.91;5072125;28;20039;-87
2020/12/27 09:07:41;;;;;;;4.55;1.20;;;;;;;6.90;74.66;96695.16;5061915;28;20127;-87
2020/12/27 09:10:20;;;;;;;2.88;0.82;;;;;;;7.01;74.50;96691.34;5071776;28;20025;-87
2020/12/27 09:12:58;;;;;;;9.48;1.27;;;;;;;6.48;74.76;96693.75;5070720;28;20409;-88
2020/12/27 09:15:25;;;;;;;9.25;1.30;;;;;;;6.62;73.65;96692.22;5050770;28;20062;-88
2020/12/27 09:18:14;;;;;;;4.13;1.00;;;;;;;6.82;73.98;96695.19;5057131;28;20023;-88
2020/12/27 09:20:42;;;;;;;7.28;1.13;;;;;;;6.68;73.15;96703.75;5071709;28;20043;-87
2020/12/27 09:23:15;;;;;;;16.27;2.15;;;;;;;6.53;74.54;96698.44;5071032;28;20102;-88
2020/12/27 09:25:42;;;;;;;7.15;0.95;;;;;;;6.68;73.15;96691.53;5051576;28;20372;-87
2020/12/27 09:28:13;;;;;;;3.70;1.25;;;;;;;6.86;74.18;96699.09;5057316;28;20016;-87
2020/12/27 09:30:40;;;;;;;5.35;1.17;;;;;;;6.80;74.95;96701.59;5061675;28;20029;-88
2020/12/27 09:33:05;;;;;;;6.03;1.08;;;;;;;6.90;74.62;96694.34;5064995;28;20210;-88
2020/12/27 09:35:31;;;;;;;4.45;0.90;;;;;;;7.03;73.05;96696.38;5051557;28;20463;-87
2020/12/27 09:37:56;;;;;;;5.25;1.35;;;;;;;7.06;73.00;96696.03;5060991;28;20568;-87
2020/12/27 09:40:21;;;;;;;6.50;1.58;;;;;;;7.06;72.83;96694.25;5071457;28;20029;-87
2020/12/27 09:42:47;;;;;;;12.02;1.65;;;;;;;6.88;73.53;96688.50;5070104;28;20028;-87
2020/12/27 09:45:19;;;;;;;6.82;1.20;;;;;;;7.17;72.58;96694.81;5063413;28;20028;-87
2020/12/27 09:47:55;;;;;;;5.05;1.08;;;;;;;7.40;71.67;96692.22;5071081;28;20025;-87
2020/12/27 09:50:36;;;;;;;9.82;3.13;;;;;;;7.43;71.35;96692.69;5069783;28;20029;-88
2020/12/27 09:53:05;;;;;;;9.15;1.25;;;;;;;7.59;71.56;96688.31;5062974;28;20037;-87
2020/12/27 09:55:31;;;;;;;5.35;1.40;;;;;;;7.66;72.06;96687.44;5059889;28;20044;-87
2020/12/27 09:57:57;;;;;;;16.75;2.75;;;;;;;7.71;70.80;96690.31;5051317;28;20563;-87
2020/12/27 10:00:23;;;;;;;10.65;1.10;;;;;;;8.12;72.18;96683.88;5058224;28;20032;-87
2020/12/27 10:02:49;;;;;;;13.43;1.70;;;;;;;8.06;67.56;96687.22;5063362;28;20100;-87
2020/12/27 10:05:15;;;;;;;11.55;1.40;;;;;;;8.43;66.84;96682.88;5068664;28;20479;-88
2020/12/27 10:07:41;;;;;;;10.63;1.60;;;;;;;9.11;67.30;96686.09;5070921;28;20111;-87
2020/12/27 10:10:09;;;;;;;7.45;1.48;;;;;;;9.10;65.95;96693.13;5069325;28;20036;-88
2020/12/27 10:12:35;;;;;;;9.65;1.60;;;;;;;10.00;63.80;96696.09;5068309;28;20026;-87
2020/12/27 10:15:03;;;;;;;8.43;1.38;;;;;;;10.24;63.78;96705.31;5068428;28;20033;-88
2020/12/27 10:17:28;;;;;;;12.98;2.00;;;;;;;10.93;62.73;96692.34;5056864;28;20033;-88
2020/12/27 10:19:54;;;;;;;17.58;2.40;;;;;;;11.19;60.04;96694.22;5061285;28;20035;-88
2020/12/27 10:22:19;;;;;;;11.80;1.77;;;;;;;12.03;56.39;96692.88;5068087;28;20438;-88
2020/12/27 10:24:44;;;;;;;11.27;2.10;;;;;;;12.20;54.70;96696.66;5063475;28;20207;-88
2020/12/27 10:27:10;;;;;;;14.52;2.58;;;;;;;12.28;56.91;96683.31;5053486;28;20100;-88
2020/12/27 10:29:36;;;;;;;12.95;2.17;;;;;;;13.03;55.23;96674.91;5057943;28;20039;-88
2020/12/27 10:32:05;;;;;;;20.52;4.53;;;;;;;13.32;52.76;96678.00;5072401;28;20389;-88
2020/12/27 10:34:30;;;;;;;16.10;2.05;;;;;;;13.20;54.79;96674.41;5055819;28;20017;-88
2020/12/27 10:36:58;;;;;;;10.05;2.15;;;;;;;12.77;53.98;96659.25;5055047;28;20471;-88
2020/12/27 10:39:23;;;;;;;10.15;1.80;;;;;;;12.86;55.46;96673.78;5060588;28;20375;-89
2020/12/27 10:41:51;;;;;;;13.32;2.92;;;;;;;13.22;54.24;96678.44;5058886;28;20362;-89
2020/12/27 10:44:16;;;;;;;11.65;1.83;;;;;;;14.21;52.58;96669.94;5055371;28;20027;-88
2020/12/27 10:46:43;;;;;;;15.45;2.33;;;;;;;14.14;50.98;96670.03;5062726;28;20017;-89
2020/12/27 10:49:08;;;;;;;13.30;1.98;;;;;;;13.41;53.68;96655.66;5073377;28;20493;-87
2020/12/27 10:51:38;;;;;;;14.25;2.83;;;;;;;12.87;54.79;96649.88;5076392;28;20478;-88
2020/12/27 10:54:04;;;;;;;8.55;2.40;;;;;;;12.80;54.39;96641.22;5074401;28;20028;-88
2020/12/27 10:56:30;;;;;;;10.13;2.40;;;;;;;12.72;53.63;96638.00;5058878;28;20483;-88
2020/12/27 10:58:55;;;;;;;12.35;1.95;;;;;;;13.06;52.18;96642.06;5054889;28;20112;-88
2020/12/27 11:01:21;;;;;;;11.32;2.15;;;;;;;12.84;55.06;96642.41;5071474;28;20471;-88
2020/12/27 11:03:46;;;;;;;12.23;2.70;;;;;;;13.48;49.60;96629.22;5074031;28;20437;-88
2020/12/27 11:06:12;;;;;;;7.38;2.10;;;;;;;14.08;52.65;96637.41;5071012;28;20028;-88
2020/12/27 11:08:37;;;;;;;14.63;2.85;;;;;;;14.07;49.68;96638.41;5074402;28;20031;-87
2020/12/27 11:11:03;;;;;;;14.65;2.65;;;;;;;13.43;53.76;96624.63;5062229;28;20614;-88
2020/12/27 11:13:28;;;;;;;9.63;2.00;;;;;;;13.10;53.43;96615.09;5054398;28;20119;-88
2020/12/27 11:15:53;;;;;;;13.88;2.88;;;;;;;13.47;50.60;96615.25;5054151;28;20410;-88
2020/12/27 11:18:19;;;;;;;15.57;3.00;;;;;;;12.90;52.64;96617.06;5054215;28;20025;-88
2020/12/27 11:20:44;;;;;;;9.80;1.95;;;;;;;12.80;52.21;96603.56;5060259;28;20025;-88
2020/12/27 11:23:09;;;;;;;13.48;2.58;;;;;;;13.93;52.22;96612.41;5065598;28;20078;-88
2020/12/27 11:25:35;;;;;;;15.73;2.22;;;;;;;12.70;51.61;96611.91;5054293;28;20471;-88
2020/12/27 11:28:00;;;;;;;11.05;2.20;;;;;;;12.85;51.35;96617.66;5058964;28;20582;-87
2020/12/27 11:30:26;;;;;;;10.48;2.35;;;;;;;12.39;53.97;96621.34;5073333;28;20418;-87
2020/12/27 11:32:51;;;;;;;11.48;2.50;;;;;;;12.73;52.66;96614.09;5074455;28;20538;-88
2020/12/27 11:35:16;;;;;;;15.73;2.30;;;;;;;13.11;53.27;96623.78;5073904;28;20032;-87
2020/12/27 11:37:42;;;;;;;13.40;2.47;;;;;;;13.32;53.55;96604.22;5062401;28;20033;-88